Time;durP1;ratioP1;P1;durP2;ratioP2;P2;SDS_P1;SDS_P2;PMS_P1;PMS_P2;Temp;Humidity;BMP_temperature;BMP_pressure;BME280_temperature;BME280_humidity;BME280_pressure;Samples;Min_cycle;Max_cycle;Signal;HPM_P1;HPM_P2
2023/10/28 00:01:14;;;;;;;;;;;10.90;99.90;;;;;;4952808;28;19965;-74
2023/10/28 00:03:40;;;;;;;;;;;;;;;;;;4955137;28;19922;-74
2023/10/28 00:06:07;;;;;;;;;;;;;;;;;;4956109;29;19965;-74
2023/10/28 00:08:33;;;;;;;;;;;;;;;;;;4956144;28;19941;-74
2023/10/28 00:11:00;;;;;;;;;;;;;;;;;;4955231;29;20001;-74
2023/10/28 00:13:26;;;;;;;;;;;10.70;99.90;;;;;;4953685;28;19914;-74
2023/10/28 00:15:52;;;;;;;;;;;;;;;;;;4955855;28;20464;-74
2023/10/28 00:18:17;;;;;;;;;;;;;;;;;;4950940;29;19911;-74
2023/10/28 00:20:46;;;;;;;;;;;10.50;99.90;;;;;;4954804;29;20377;-74
2023/10/28 00:23:14;;;;;;;;;;;;;;;;;;4954650;28;19918;-74
2023/10/28 00:25:40;;;;;;;;;;;10.60;99.90;;;;;;4953494;29;19974;-74
2023/10/28 00:28:05;;;;;;;;;;;10.30;99.90;;;;;;4954674;28;19915;-74
2023/10/28 00:30:31;;;;;;;;;;;;;;;;;;4954420;29;19918;-74
2023/10/28 00:33:00;;;;;;;;;;;;;;;;;;4954288;29;20552;-74
2023/10/28 00:35:28;;;;;;;;;;;10.40;99.90;;;;;;4953107;28;19948;-74
2023/10/28 00:37:54;;;;;;;;;;;10.40;99.90;;;;;;4954397;28;19914;-74
2023/10/28 00:40:20;;;;;;;;;;;;;;;;;;4953986;28;19933;-74
2023/10/28 00:42:46;;;;;;;;;;;;;;;;;;4954530;28;19910;-74
2023/10/28 00:45:13;;;;;;;;;;;;;;;;;;4952317;28;19969;-74
2023/10/28 00:47:40;;;;;;;;;;;9.90;99.90;;;;;;4955467;29;19921;-74
2023/10/28 00:50:06;;;;;;;;;;;;;;;;;;4951161;29;19911;-74
2023/10/28 00:52:32;;;;;;;;;;;10.20;99.90;;;;;;4954160;29;20281;-73
2023/10/28 00:54:58;;;;;;;;;;;;;;;;;;4951649;28;19921;-74
2023/10/28 00:57:23;;;;;;;;;;;;;;;;;;4955885;28;19958;-74
2023/10/28 00:59:49;;;;;;;;;;;;;;;;;;4952963;29;19976;-74
2023/10/28 01:02:16;;;;;;;;;;;10.10;99.90;;;;;;4954475;29;19916;-73
2023/10/28 01:04:42;;;;;;;;;;;;;;;;;;4953998;29;19948;-74
2023/10/28 01:07:08;;;;;;;;;;;10.30;99.90;;;;;;4952034;28;20248;-74
2023/10/28 01:09:34;;;;;;;;;;;;;;;;;;4956061;28;19917;-75
2023/10/28 01:12:02;;;;;;;;;;;10.10;99.90;;;;;;4952779;29;20009;-75
2023/10/28 01:14:27;;;;;;;;;;;;;;;;;;4954680;29;19910;-76
2023/10/28 01:16:54;;;;;;;;;;;;;;;;;;4951494;29;19921;-75
2023/10/28 01:19:20;;;;;;;;;;;;;;;;;;4952132;28;20372;-73
2023/10/28 01:21:45;;;;;;;;;;;10.40;99.90;;;;;;4952760;29;19994;-73
2023/10/28 01:24:11;;;;;;;;;;;;;;;;;;4954629;29;19926;-73
2023/10/28 01:26:37;;;;;;;;;;;;;;;;;;4952399;29;19911;-73
2023/10/28 01:29:03;;;;;;;;;;;;;;;;;;4953743;28;19913;-72
2023/10/28 01:31:29;;;;;;;;;;;;;;;;;;4953680;29;20288;-73
2023/10/28 01:33:55;;;;;;;;;;;;;;;;;;4947622;28;19917;-73
2023/10/28 01:36:21;;;;;;;;;;;10.20;99.90;;;;;;4951025;29;19915;-72
2023/10/28 01:38:47;;;;;;;;;;;;;;;;;;4951180;28;20372;-72
2023/10/28 01:41:13;;;;;;;;;;;;;;;;;;4938262;28;19919;-73
2023/10/28 01:43:40;;;;;;;;;;;10.00;99.90;;;;;;4953251;29;20443;-73
2023/10/28 01:46:06;;;;;;;;;;;;;;;;;;4953326;28;19906;-73
2023/10/28 01:48:32;;;;;;;;;;;;;;;;;;4953422;29;20387;-73
2023/10/28 01:50:57;;;;;;;;;;;9.90;99.90;;;;;;4952001;28;19914;-73
2023/10/28 01:53:24;;;;;;;;;;;9.90;99.90;;;;;;4953196;29;19919;-73
2023/10/28 01:55:50;;;;;;;;;;;9.90;99.90;;;;;;4952097;29;20360;-73
2023/10/28 01:58:17;;;;;;;;;;;;;;;;;;4952834;28;19910;-73
2023/10/28 02:00:43;;;;;;;;;;;9.80;99.90;;;;;;4953894;29;19949;-74
2023/10/28 02:03:11;;;;;;;;;;;9.90;99.90;;;;;;4952328;28;20026;-73
2023/10/28 02:05:37;;;;;;;;;;;;;;;;;;4952572;28;19985;-74
2023/10/28 02:08:03;;;;;;;;;;;;;;;;;;4959546;28;19938;-73
2023/10/28 02:10:28;;;;;;;;;;;9.80;99.90;;;;;;4947619;29;20364;-74
2023/10/28 02:12:54;;;;;;;;;;;9.70;99.90;;;;;;4941323;28;19925;-74
2023/10/28 02:15:19;;;;;;;;;;;9.80;99.90;;;;;;4952490;29;19911;-73
2023/10/28 02:17:46;;;;;;;;;;;;;;;;;;4951632;28;19963;-73
2023/10/28 02:20:13;;;;;;;;;;;;;;;;;;4952471;29;19918;-74
2023/10/28 02:22:39;;;;;;;;;;;9.70;99.90;;;;;;4951224;29;20349;-74
2023/10/28 02:25:06;;;;;;;;;;;9.80;99.90;;;;;;4947908;28;19962;-73
2023/10/28 02:27:32;;;;;;;;;;;;;;;;;;4942181;29;19922;-74
2023/10/28 02:29:58;;;;;;;;;;;;;;;;;;4952478;29;19910;-74
2023/10/28 02:32:24;;;;;;;;;;;;;;;;;;4952425;29;19961;-74
2023/10/28 02:34:49;;;;;;;;;;;9.60;99.90;;;;;;4951334;28;20323;-74
2023/10/28 02:37:15;;;;;;;;;;;;;;;;;;4952718;28;19922;-73
2023/10/28 02:39:42;;;;;;;;;;;;;;;;;;4952094;29;20311;-74
2023/10/28 02:42:07;;;;;;;;;;;9.80;99.90;;;;;;4951590;28;19969;-74
2023/10/28 02:44:33;;;;;;;;;;;;;;;;;;4950984;29;19926;-74
2023/10/28 02:46:59;;;;;;;;;;;9.50;99.90;;;;;;4951467;28;19981;-74
2023/10/28 02:49:25;;;;;;;;;;;9.60;99.90;;;;;;4952263;28;19969;-74
2023/10/28 02:51:51;;;;;;;;;;;;;;;;;;4952726;29;19910;-74
2023/10/28 02:54:16;;;;;;;;;;;9.30;99.90;;;;;;4953126;29;20000;-74
2023/10/28 02:56:42;;;;;;;;;;;;;;;;;;4948674;28;19966;-74
2023/10/28 02:59:08;;;;;;;;;;;;;;;;;;4949472;29;20387;-74
2023/10/28 03:01:39;;;;;;;;;;;;;;;;;;4951402;29;19910;-74
2023/10/28 03:04:05;;;;;;;;;;;9.40;99.90;;;;;;4950708;29;19918;-74
2023/10/28 03:06:31;;;;;;;;;;;9.70;99.90;;;;;;4952481;28;20391;-74
2023/10/28 03:08:57;;;;;;;;;;;9.50;99.90;;;;;;4965282;28;20375;-74
2023/10/28 03:11:23;;;;;;;;;;;;;;;;;;4952252;28;19919;-74
2023/10/28 03:13:48;;;;;;;;;;;9.60;99.90;;;;;;4955679;29;19918;-74
2023/10/28 03:16:13;;;;;;;;;;;9.60;99.90;;;;;;4954165;29;20352;-74
2023/10/28 03:18:39;;;;;;;;;;;;;;;;;;4955147;28;19915;-74
2023/10/28 03:21:06;;;;;;;;;;;;;;;;;;4955164;29;19910;-74
2023/10/28 03:23:32;;;;;;;;;;;;;;;;;;4956292;29;19923;-74
2023/10/28 03:25:58;;;;;;;;;;;;;;;;;;4955510;29;20340;-74
2023/10/28 03:28:23;;;;;;;;;;;9.50;99.90;;;;;;4954494;29;19966;-74
2023/10/28 03:30:49;;;;;;;;;;;;;;;;;;4955126;28;20279;-74
2023/10/28 03:33:15;;;;;;;;;;;;;;;;;;4954473;29;20451;-74
2023/10/28 03:35:41;;;;;;;;;;;;;;;;;;4955069;29;19974;-74
2023/10/28 03:38:07;;;;;;;;;;;;;;;;;;4956021;29;20312;-74
2023/10/28 03:40:32;;;;;;;;;;;9.10;99.90;;;;;;4954827;28;19933;-74
2023/10/28 03:42:58;;;;;;;;;;;;;;;;;;4955858;29;20351;-74
2023/10/28 03:45:24;;;;;;;;;;;;;;;;;;4953423;29;19930;-74
2023/10/28 03:47:50;;;;;;;;;;;9.20;99.90;;;;;;4953886;29;19949;-74
2023/10/28 03:50:16;;;;;;;;;;;;;;;;;;4955604;29;19961;-74
2023/10/28 03:52:42;;;;;;;;;;;;;;;;;;4949407;28;20343;-74
2023/10/28 03:55:08;;;;;;;;;;;;;;;;;;4956019;29;19907;-74
2023/10/28 03:57:33;;;;;;;;;;;;;;;;;;4952343;28;19997;-74
2023/10/28 03:59:59;;;;;;;;;;;9.20;99.90;;;;;;4956217;29;19907;-74
2023/10/28 04:02:25;;;;;;;;;;;;;;;;;;4950730;28;19966;-74
2023/10/28 04:04:52;;;;;;;;;;;;;;;;;;4936966;29;19983;-74
2023/10/28 04:07:18;;;;;;;;;;;;;;;;;;4953767;28;20356;-74
2023/10/28 04:09:44;;;;;;;;;;;;;;;;;;4956001;29;20028;-74
2023/10/28 04:12:10;;;;;;;;;;;;;;;;;;4952308;29;19911;-74
2023/10/28 04:14:36;;;;;;;;;;;;;;;;;;4950399;28;19911;-74
2023/10/28 04:17:03;;;;;;;;;;;;;;;;;;4954859;29;19934;-74
2023/10/28 04:19:28;;;;;;;;;;;;;;;;;;4954849;29;19911;-74
2023/10/28 04:21:55;;;;;;;;;;;;;;;;;;4953386;28;20390;-74
2023/10/28 04:24:22;;;;;;;;;;;;;;;;;;4945499;28;19922;-74
2023/10/28 04:26:48;;;;;;;;;;;;;;;;;;4938055;29;19938;-74
2023/10/28 04:29:13;;;;;;;;;;;;;;;;;;4952695;29;19969;-74
2023/10/28 04:31:39;;;;;;;;;;;8.90;99.90;;;;;;4953528;29;20375;-75
2023/10/28 04:34:05;;;;;;;;;;;8.80;99.90;;;;;;4955061;29;19958;-74
2023/10/28 04:36:31;;;;;;;;;;;;;;;;;;4961706;28;19934;-74
2023/10/28 04:38:57;;;;;;;;;;;;;;;;;;4954170;29;20348;-75
2023/10/28 04:41:23;;;;;;;;;;;;;;;;;;4947091;28;19911;-75
2023/10/28 04:43:49;;;;;;;;;;;9.10;99.90;;;;;;4954296;29;20341;-75
2023/10/28 04:46:15;;;;;;;;;;;;;;;;;;4952296;28;19917;-74
2023/10/28 04:48:46;;;;;;;;;;;;;;;;;;4953888;29;19995;-74
2023/10/28 04:51:12;;;;;;;;;;;;;;;;;;4954677;29;19914;-74
2023/10/28 04:53:38;;;;;;;;;;;;;;;;;;4954826;28;19912;-75
2023/10/28 04:56:08;;;;;;;;;;;;;;;;;;4953948;29;20272;-74
2023/10/28 04:58:34;;;;;;;;;;;;;;;;;;4950779;28;19910;-74
2023/10/28 05:00:59;;;;;;;;;;;9.20;99.90;;;;;;4953723;29;19917;-74
2023/10/28 05:03:25;;;;;;;;;;;9.10;99.90;;;;;;4954599;29;19918;-74
2023/10/28 05:05:50;;;;;;;;;;;9.30;99.90;;;;;;4953999;28;19922;-74
2023/10/28 05:08:16;;;;;;;;;;;;;;;;;;4957240;28;20269;-74
2023/10/28 05:10:42;;;;;;;;;;;;;;;;;;4951171;28;20298;-74
2023/10/28 05:13:10;;;;;;;;;;;;;;;;;;4950292;29;19910;-74
2023/10/28 05:15:36;;;;;;;;;;;;;;;;;;4948267;29;20386;-74
2023/10/28 05:18:02;;;;;;;;;;;;;;;;;;4953928;29;19914;-74
2023/10/28 05:20:27;;;;;;;;;;;8.90;99.90;;;;;;4952494;28;19921;-74
2023/10/28 05:22:53;;;;;;;;;;;;;;;;;;4953064;29;19997;-74
2023/10/28 05:25:19;;;;;;;;;;;;;;;;;;4953213;29;20400;-74
2023/10/28 05:27:45;;;;;;;;;;;;;;;;;;4953025;28;19917;-74
2023/10/28 05:30:11;;;;;;;;;;;;;;;;;;4953885;28;20014;-75
2023/10/28 05:32:37;;;;;;;;;;;;;;;;;;4949498;28;20030;-74
2023/10/28 05:35:03;;;;;;;;;;;;;;;;;;4951997;29;19918;-73
2023/10/28 05:37:29;;;;;;;;;;;;;;;;;;4949163;29;19954;-75
2023/10/28 05:39:56;;;;;;;;;;;;;;;;;;4949100;28;20383;-75
2023/10/28 05:42:23;;;;;;;;;;;;;;;;;;4943269;28;20444;-75
2023/10/28 05:44:49;;;;;;;;;;;9.20;99.90;;;;;;4953625;29;19990;-75
2023/10/28 05:47:16;;;;;;;;;;;9.20;99.90;;;;;;4951882;29;19944;-75
2023/10/28 05:49:42;;;;;;;;;;;;;;;;;;4940817;28;20278;-75
2023/10/28 05:52:09;;;;;;;;;;;;;;;;;;4951455;29;20005;-75
2023/10/28 05:54:34;;;;;;;;;;;9.50;99.90;;;;;;4952966;28;20009;-76
2023/10/28 05:57:00;;;;;;;;;;;;;;;;;;4954037;29;19985;-77
2023/10/28 05:59:26;;;;;;;;;;;9.80;99.90;;;;;;4952493;29;20328;-76
2023/10/28 06:01:52;;;;;;;;;;;;;;;;;;4953748;29;19914;-74
2023/10/28 06:04:21;;;;;;;;;;;9.60;99.90;;;;;;4953698;28;19968;-74
2023/10/28 06:06:47;;;;;;;;;;;9.90;99.90;;;;;;4945435;28;19917;-75
2023/10/28 06:09:13;;;;;;;;;;;9.50;99.90;;;;;;4953461;28;20291;-75
2023/10/28 06:11:40;;;;;;;;;;;;;;;;;;4952875;29;19911;-74
2023/10/28 06:14:05;;;;;;;;;;;9.60;99.90;;;;;;4948805;28;20000;-75
2023/10/28 06:16:31;;;;;;;;;;;;;;;;;;4952487;28;19957;-75
2023/10/28 06:18:57;;;;;;;;;;;;;;;;;;4954067;29;19997;-75
2023/10/28 06:21:23;;;;;;;;;;;;;;;;;;4953036;28;19922;-76
2023/10/28 06:23:49;;;;;;;;;;;9.80;99.90;;;;;;4945768;29;19911;-76
2023/10/28 06:26:14;;;;;;;;;;;;;;;;;;4947085;28;20361;-75
2023/10/28 06:28:41;;;;;;;;;;;10.00;99.90;;;;;;4949706;29;20275;-75
2023/10/28 06:31:07;;;;;;;;;;;;;;;;;;4953194;29;20012;-74
2023/10/28 06:33:33;;;;;;;;;;;;;;;;;;4950466;28;20399;-79
2023/10/28 06:35:59;;;;;;;;;;;;;;;;;;4953107;29;19920;-80
2023/10/28 06:38:28;;;;;;;;;;;9.70;99.90;;;;;;4951812;28;20005;-75
2023/10/28 06:40:53;;;;;;;;;;;;;;;;;;4944110;29;19922;-75
2023/10/28 06:43:20;;;;;;;;;;;;;;;;;;4951404;28;20402;-75
2023/10/28 06:45:45;;;;;;;;;;;;;;;;;;4956680;29;20357;-75
2023/10/28 06:48:11;;;;;;;;;;;9.90;99.90;;;;;;4955333;28;19910;-74
2023/10/28 06:50:37;;;;;;;;;;;10.00;99.90;;;;;;4954466;29;20009;-74
2023/10/28 06:53:03;;;;;;;;;;;;;;;;;;4956891;29;20327;-75
2023/10/28 06:55:28;;;;;;;;;;;9.90;99.90;;;;;;4950447;29;19910;-74
2023/10/28 06:57:54;;;;;;;;;;;9.70;99.90;;;;;;4951849;29;20400;-74
2023/10/28 07:00:24;;;;;;;;;;;10.00;99.90;;;;;;4951559;28;19993;-74
2023/10/28 07:02:50;;;;;;;;;;;;;;;;;;4956329;29;19969;-75
2023/10/28 07:05:16;;;;;;;;;;;;;;;;;;4956439;29;20017;-74
2023/10/28 07:07:43;;;;;;;;;;;;;;;;;;4961915;28;19920;-75
2023/10/28 07:10:09;;;;;;;;;;;;;;;;;;4956247;28;19957;-73
2023/10/28 07:12:35;;;;;;;;;;;9.90;99.90;;;;;;4953831;29;19996;-73
2023/10/28 07:15:00;;;;;;;;;;;;;;;;;;4952437;29;19920;-72
2023/10/28 07:17:26;;;;;;;;;;;10.20;99.90;;;;;;4956096;29;20000;-76
2023/10/28 07:19:53;;;;;;;;;;;;;;;;;;4955383;28;19914;-76
2023/10/28 07:22:22;;;;;;;;;;;;;;;;;;4948165;28;19958;-75
2023/10/28 07:24:48;;;;;;;;;;;10.60;99.90;;;;;;4954576;29;19918;-76
2023/10/28 07:27:14;;;;;;;;;;;10.40;99.90;;;;;;4956049;28;19964;-76
2023/10/28 07:29:40;;;;;;;;;;;;;;;;;;4954870;29;19921;-75
2023/10/28 07:32:06;;;;;;;;;;;;;;;;;;4953576;28;19914;-76
2023/10/28 07:34:32;;;;;;;;;;;;;;;;;;4954043;29;19965;-75
2023/10/28 07:36:57;;;;;;;;;;;;;;;;;;4956149;29;19917;-76
2023/10/28 07:39:23;;;;;;;;;;;;;;;;;;4955818;29;19911;-76
2023/10/28 07:41:49;;;;;;;;;;;10.50;99.90;;;;;;4954700;29;19973;-75
2023/10/28 07:44:15;;;;;;;;;;;;;;;;;;4955365;28;19923;-75
2023/10/28 07:46:40;;;;;;;;;;;10.40;99.90;;;;;;4953184;29;19918;-76
2023/10/28 07:49:06;;;;;;;;;;;;;;;;;;4953566;29;19915;-75
2023/10/28 07:51:35;;;;;;;;;;;;;;;;;;4955973;29;20076;-75
2023/10/28 07:54:01;;;;;;;;;;;10.60;99.90;;;;;;4954973;28;19910;-76
2023/10/28 07:56:26;;;;;;;;;;;10.60;99.90;;;;;;4955404;28;20309;-75
2023/10/28 07:58:57;;;;;;;;;;;;;;;;;;4954208;29;20017;-75
2023/10/28 08:01:22;;;;;;;;;;;10.40;99.90;;;;;;4955063;29;19915;-77
2023/10/28 08:03:48;;;;;;;;;;;;;;;;;;4952399;28;20431;-76
2023/10/28 08:06:14;;;;;;;;;;;10.60;99.90;;;;;;4954381;28;19910;-77
2023/10/28 08:08:40;;;;;;;;;;;10.60;99.90;;;;;;4955352;28;19969;-75
2023/10/28 08:11:06;;;;;;;;;;;;;;;;;;4956519;28;19913;-75
2023/10/28 08:13:34;;;;;;;;;;;10.40;99.90;;;;;;4954642;29;20006;-75
2023/10/28 08:16:01;;;;;;;;;;;;;;;;;;4954437;28;20374;-76
2023/10/28 08:18:28;;;;;;;;;;;;;;;;;;4954747;29;20002;-76
2023/10/28 08:20:54;;;;;;;;;;;10.60;99.90;;;;;;4954420;29;20276;-75
2023/10/28 08:23:20;;;;;;;;;;;;;;;;;;4947997;29;19918;-76
2023/10/28 08:25:46;;;;;;;;;;;10.40;99.90;;;;;;4954176;29;20009;-76
2023/10/28 08:28:12;;;;;;;;;;;10.60;99.90;;;;;;4951591;28;20353;-76
2023/10/28 08:30:38;;;;;;;;;;;;;;;;;;4954430;29;20432;-76
2023/10/28 08:33:04;;;;;;;;;;;;;;;;;;4951659;29;20383;-75
2023/10/28 08:35:30;;;;;;;;;;;;;;;;;;4954594;29;19917;-76
2023/10/28 08:37:56;;;;;;;;;;;;;;;;;;4954638;28;19921;-76
2023/10/28 08:40:21;;;;;;;;;;;10.80;99.90;;;;;;4953762;29;19919;-75
2023/10/28 08:42:47;;;;;;;;;;;;;;;;;;4954664;29;19910;-75
2023/10/28 08:45:13;;;;;;;;;;;10.70;99.90;;;;;;4953914;29;19974;-75
2023/10/28 08:47:39;;;;;;;;;;;;;;;;;;4954700;28;20017;-75
2023/10/28 08:50:06;;;;;;;;;;;10.70;99.90;;;;;;4953119;28;20005;-75
2023/10/28 08:52:32;;;;;;;;;;;;;;;;;;4955226;28;19914;-76
2023/10/28 08:54:59;;;;;;;;;;;10.60;99.90;;;;;;4952790;29;20040;-75
2023/10/28 08:57:25;;;;;;;;;;;;;;;;;;4954161;29;19925;-75
2023/10/28 08:59:51;;;;;;;;;;;;;;;;;;4953087;28;19910;-75
2023/10/28 09:02:18;;;;;;;;;;;;;;;;;;4949976;28;20360;-75
2023/10/28 09:04:43;;;;;;;;;;;11.20;99.90;;;;;;4953356;29;20384;-76
2023/10/28 09:07:09;;;;;;;;;;;10.80;99.90;;;;;;4959428;28;19914;-75
2023/10/28 09:09:37;;;;;;;;;;;;;;;;;;4951139;29;19915;-75
2023/10/28 09:12:05;;;;;;;;;;;;;;;;;;4944634;28;19910;-75
2023/10/28 09:14:30;;;;;;;;;;;11.10;99.90;;;;;;4954279;28;20379;-75
2023/10/28 09:17:00;;;;;;;;;;;;;;;;;;4953573;29;19915;-75
2023/10/28 09:19:26;;;;;;;;;;;;;;;;;;4951546;28;20460;-74
2023/10/28 09:21:52;;;;;;;;;;;;;;;;;;4951376;28;20005;-81
2023/10/28 09:24:18;;;;;;;;;;;10.90;99.90;;;;;;4953579;29;19925;-74
2023/10/28 09:26:46;;;;;;;;;;;11.20;99.90;;;;;;4952256;28;19918;-76
2023/10/28 09:29:11;;;;;;;;;;;;;;;;;;4951114;29;20380;-75
2023/10/28 09:31:37;;;;;;;;;;;;;;;;;;4953800;29;19910;-75
2023/10/28 09:34:03;;;;;;;;;;;;;;;;;;4952068;28;19919;-75
2023/10/28 09:36:29;;;;;;;;;;;;;;;;;;4953793;29;19910;-75
2023/10/28 09:38:55;;;;;;;;;;;11.30;99.90;;;;;;4954681;29;19961;-75
2023/10/28 09:41:21;;;;;;;;;;;11.50;99.90;;;;;;4952680;28;19928;-75
2023/10/28 09:43:47;;;;;;;;;;;;;;;;;;4950503;28;20348;-75
2023/10/28 09:46:13;;;;;;;;;;;;;;;;;;4948204;29;19927;-75
2023/10/28 09:48:45;;;;;;;;;;;11.50;99.90;;;;;;4953934;28;19911;-75
2023/10/28 09:51:13;;;;;;;;;;;11.40;99.90;;;;;;4958362;28;20356;-75
2023/10/28 09:53:40;;;;;;;;;;;11.70;99.90;;;;;;4952883;28;19914;-75
2023/10/28 09:56:06;;;;;;;;;;;;;;;;;;4952553;28;19910;-76
2023/10/28 09:58:32;;;;;;;;;;;;;;;;;;4954118;29;20246;-76
2023/10/28 10:00:58;;;;;;;;;;;;;;;;;;4953033;28;19911;-75
2023/10/28 10:03:24;;;;;;;;;;;;;;;;;;4948767;28;20466;-75
2023/10/28 10:05:51;;;;;;;;;;;;;;;;;;4944734;28;19928;-75
2023/10/28 10:08:17;;;;;;;;;;;;;;;;;;4952715;29;19911;-75
2023/10/28 10:10:45;;;;;;;;;;;;;;;;;;4953357;28;19914;-76
2023/10/28 10:13:11;;;;;;;;;;;11.50;99.90;;;;;;4946531;29;19911;-73
2023/10/28 10:15:38;;;;;;;;;;;11.70;99.90;;;;;;4950196;29;19958;-81
2023/10/28 10:18:04;;;;;;;;;;;;;;;;;;4950276;28;19973;-73
2023/10/28 10:20:32;;;;;;;;;;;11.50;99.90;;;;;;4942326;29;19914;-74
2023/10/28 10:23:01;;;;;;;;;;;;;;;;;;4951834;29;19921;-75
2023/10/28 10:25:27;;;;;;;;;;;;;;;;;;4944905;28;19926;-76
2023/10/28 10:28:04;;;;;;;;;;;11.70;99.90;;;;;;4949830;28;20031;-76
2023/10/28 10:30:32;;;;;;;;;;;11.70;99.90;;;;;;4951834;28;20001;-76
2023/10/28 10:32:58;;;;;;;;;;;;;;;;;;4952532;28;20392;-76
2023/10/28 10:35:28;;;;;;;;;;;12.00;99.90;;;;;;4951417;29;19948;-75
2023/10/28 10:37:54;;;;;;;;;;;;;;;;;;4943251;28;19910;-76
2023/10/28 10:40:21;;;;;;;;;;;11.80;99.90;;;;;;4951153;28;20440;-76
2023/10/28 10:42:48;;;;;;;;;;;;;;;;;;4953240;28;19914;-76
2023/10/28 10:45:17;;;;;;;;;;;;;;;;;;4953004;28;19946;-76
2023/10/28 10:47:42;;;;;;;;;;;;;;;;;;4945900;29;19911;-76
2023/10/28 10:50:08;;;;;;;;;;;;;;;;;;4950851;28;19937;-76
2023/10/28 10:52:34;;;;;;;;;;;12.40;99.90;;;;;;4952922;29;20336;-76
2023/10/28 10:55:04;;;;;;;;;;;;;;;;;;4950125;28;19938;-75
2023/10/28 10:57:30;;;;;;;;;;;12.40;99.90;;;;;;4948671;28;19969;-75
2023/10/28 10:59:58;;;;;;;;;;;;;;;;;;4941567;28;19930;-75
2023/10/28 11:02:24;;;;;;;;;;;;;;;;;;4952109;28;20699;-75
2023/10/28 11:04:50;;;;;;;;;;;12.40;99.90;;;;;;4950327;28;19920;-76
2023/10/28 11:07:15;;;;;;;;;;;12.10;99.90;;;;;;4955076;28;20331;-76
2023/10/28 11:09:42;;;;;;;;;;;11.90;99.90;;;;;;4951667;29;20355;-76
2023/10/28 11:12:07;;;;;;;;;;;12.00;99.90;;;;;;4950587;28;20009;-76
2023/10/28 11:14:33;;;;;;;;;;;;;;;;;;4939433;29;20009;-76
2023/10/28 11:16:59;;;;;;;;;;;;;;;;;;4949013;28;19911;-76
2023/10/28 11:19:25;;;;;;;;;;;12.20;99.90;;;;;;4951558;28;19921;-76
2023/10/28 11:21:51;;;;;;;;;;;;;;;;;;4949430;29;19922;-76
2023/10/28 11:24:17;;;;;;;;;;;;;;;;;;4968650;28;19918;-78
2023/10/28 11:26:46;;;;;;;;;;;12.30;99.90;;;;;;4952992;28;19906;-80
2023/10/28 11:29:12;;;;;;;;;;;;;;;;;;4946882;28;20468;-77
2023/10/28 11:31:40;;;;;;;;;;;12.10;99.90;;;;;;4953056;28;19914;-77
2023/10/28 11:34:08;;;;;;;;;;;;;;;;;;4954301;28;19966;-79
2023/10/28 11:36:34;;;;;;;;;;;;;;;;;;4955968;29;20471;-80
2023/10/28 11:39:08;;;;;;;;;;;12.50;99.90;;;;;;4955091;29;20022;-79
2023/10/28 11:41:34;;;;;;;;;;;;;;;;;;4961278;28;20366;-80
2023/10/28 11:43:59;;;;;;;;;;;;;;;;;;4955244;29;19929;-81
2023/10/28 11:46:25;;;;;;;;;;;12.20;99.90;;;;;;4954232;28;19914;-81
2023/10/28 11:48:51;;;;;;;;;;;;;;;;;;4953021;29;20399;-81
2023/10/28 11:51:16;;;;;;;;;;;12.30;99.90;;;;;;4954559;29;19911;-80
2023/10/28 11:53:44;;;;;;;;;;;;;;;;;;4954776;29;19914;-77
2023/10/28 11:56:10;;;;;;;;;;;12.50;99.90;;;;;;4954933;28;20451;-83
2023/10/28 11:58:35;;;;;;;;;;;12.30;99.90;;;;;;4953024;29;20003;-82
2023/10/28 12:01:01;;;;;;;;;;;;;;;;;;4954437;29;19910;-84
2023/10/28 12:03:27;;;;;;;;;;;;;;;;;;4948745;28;19914;-82
2023/10/28 12:05:53;;;;;;;;;;;;;;;;;;4953511;29;19926;-84
2023/10/28 12:08:19;;;;;;;;;;;12.50;99.90;;;;;;4951813;28;20269;-84
2023/10/28 12:10:46;;;;;;;;;;;;;;;;;;4955535;28;19921;-85
2023/10/28 12:13:12;;;;;;;;;;;;;;;;;;4954025;29;19919;-83
2023/10/28 12:15:38;;;;;;;;;;;;;;;;;;4956324;29;19917;-83
2023/10/28 12:18:03;;;;;;;;;;;;;;;;;;4951489;28;19935;-83
2023/10/28 12:20:29;;;;;;;;;;;;;;;;;;4956695;29;20368;-84
2023/10/28 12:22:56;;;;;;;;;;;12.80;99.90;;;;;;4953429;28;19925;-84
2023/10/28 12:25:23;;;;;;;;;;;;;;;;;;4954233;29;19919;-81
2023/10/28 12:27:50;;;;;;;;;;;;;;;;;;4954819;29;19911;-85
2023/10/28 12:30:16;;;;;;;;;;;;;;;;;;4953894;28;19917;-73
2023/10/28 12:32:42;;;;;;;;;;;13.20;99.90;;;;;;4950796;29;19910;-85
2023/10/28 12:35:08;;;;;;;;;;;;;;;;;;4954829;28;19918;-83
2023/10/28 12:37:33;;;;;;;;;;;;;;;;;;4951150;29;20265;-85
2023/10/28 12:39:59;;;;;;;;;;;;;;;;;;4947211;28;19951;-80
2023/10/28 12:42:25;;;;;;;;;;;;;;;;;;4953882;28;19914;-87
2023/10/28 12:44:51;;;;;;;;;;;13.10;99.90;;;;;;4954483;29;20376;-85
2023/10/28 12:47:17;;;;;;;;;;;;;;;;;;4955293;28;19911;-80
2023/10/28 12:49:43;;;;;;;;;;;;;;;;;;4952040;29;19919;-81
2023/10/28 12:52:09;;;;;;;;;;;13.30;99.90;;;;;;4956027;28;20291;-83
2023/10/28 12:54:35;;;;;;;;;;;;;;;;;;4952542;28;19986;-78
2023/10/28 12:57:01;;;;;;;;;;;;;;;;;;4954063;29;19918;-75
2023/10/28 12:59:27;;;;;;;;;;;;;;;;;;4949758;29;19915;-81
2023/10/28 13:01:54;;;;;;;;;;;;;;;;;;4953101;28;20376;-81
2023/10/28 13:04:22;;;;;;;;;;;13.20;99.90;;;;;;4952107;28;20636;-80
2023/10/28 13:06:48;;;;;;;;;;;;;;;;;;4951610;29;19914;-80
2023/10/28 13:09:14;;;;;;;;;;;13.10;99.90;;;;;;4946927;28;19918;-80
2023/10/28 13:11:39;;;;;;;;;;;13.30;99.90;;;;;;4951240;28;19914;-80
2023/10/28 13:14:08;;;;;;;;;;;;;;;;;;4949645;28;19938;-79
2023/10/28 13:16:37;;;;;;;;;;;;;;;;;;4953593;29;20414;-80
2023/10/28 13:19:03;;;;;;;;;;;13.30;99.90;;;;;;4954551;28;19914;-80
2023/10/28 13:21:29;;;;;;;;;;;13.60;99.90;;;;;;4952614;28;20280;-79
2023/10/28 13:23:55;;;;;;;;;;;;;;;;;;4948545;28;19907;-79
2023/10/28 13:26:20;;;;;;;;;;;13.40;99.90;;;;;;4950010;29;19966;-80
2023/10/28 13:28:49;;;;;;;;;;;;;;;;;;4949615;29;19914;-79
2023/10/28 13:31:15;;;;;;;;;;;;;;;;;;4948433;29;19989;-79
2023/10/28 13:33:41;;;;;;;;;;;;;;;;;;4950920;28;20312;-80
2023/10/28 13:36:07;;;;;;;;;;;;;;;;;;4952250;28;19914;-73
2023/10/28 13:38:33;;;;;;;;;;;;;;;;;;4953252;29;19910;-74
2023/10/28 13:40:59;;;;;;;;;;;;;;;;;;4953185;29;19918;-78
2023/10/28 13:43:25;;;;;;;;;;;;;;;;;;4952008;28;19911;-75
2023/10/28 13:45:52;;;;;;;;;;;;;;;;;;4948508;28;19918;-76
2023/10/28 13:48:18;;;;;;;;;;;;;;;;;;4951425;28;19911;-75
2023/10/28 13:50:45;;;;;;;;;;;;;;;;;;4950415;29;19921;-76
2023/10/28 13:53:11;;;;;;;;;;;;;;;;;;4951714;28;19957;-76
2023/10/28 13:55:37;;;;;;;;;;;;;;;;;;4951396;28;19922;-79
2023/10/28 13:58:03;;;;;;;;;;;;;;;;;;4948137;28;19921;-75
2023/10/28 14:00:29;;;;;;;;;;;13.20;99.90;;;;;;4951921;29;20686;-77
2023/10/28 14:02:55;;;;;;;;;;;;;;;;;;4950916;28;19989;-76
2023/10/28 14:05:21;;;;;;;;;;;;;;;;;;4950023;28;19965;-76
2023/10/28 14:07:46;;;;;;;;;;;13.40;99.90;;;;;;4948946;28;19911;-76
2023/10/28 14:10:12;;;;;;;;;;;;;;;;;;4951999;29;19945;-76
2023/10/28 14:12:41;;;;;;;;;;;13.00;99.90;;;;;;4947597;29;19914;-77
2023/10/28 14:15:08;;;;;;;;;;;;;;;;;;4949405;29;19918;-77
2023/10/28 14:17:34;;;;;;;;;;;13.20;99.90;;;;;;4948528;29;19914;-76
2023/10/28 14:20:00;;;;;;;;;;;;;;;;;;4947652;28;19911;-77
2023/10/28 14:22:26;;;;;;;;;;;;;;;;;;4950679;29;19918;-76
2023/10/28 14:24:51;;;;;;;;;;;12.80;99.90;;;;;;4951436;29;20009;-76
2023/10/28 14:27:17;;;;;;;;;;;13.00;99.90;;;;;;4951574;29;20368;-77
2023/10/28 14:29:43;;;;;;;;;;;12.80;99.90;;;;;;4949210;28;19922;-77
2023/10/28 14:32:12;;;;;;;;;;;;;;;;;;4950938;28;19914;-78
2023/10/28 14:34:38;;;;;;;;;;;;;;;;;;4948350;29;19934;-78
2023/10/28 14:37:04;;;;;;;;;;;12.90;99.90;;;;;;4948401;29;20008;-77
2023/10/28 14:39:30;;;;;;;;;;;;;;;;;;4951502;29;19923;-78
2023/10/28 14:41:56;;;;;;;;;;;;;;;;;;4949770;28;20002;-78
2023/10/28 14:44:21;;;;;;;;;;;12.90;99.90;;;;;;4951456;28;20336;-77
2023/10/28 14:46:47;;;;;;;;;;;12.80;99.90;;;;;;4950982;28;19910;-77
2023/10/28 14:49:12;;;;;;;;;;;;;;;;;;4951039;29;19941;-75
2023/10/28 14:51:38;;;;;;;;;;;;;;;;;;4950093;29;20276;-76
2023/10/28 14:54:04;;;;;;;;;;;;;;;;;;4949473;28;20004;-76
2023/10/28 14:56:30;;;;;;;;;;;12.40;99.90;;;;;;4951728;28;19910;-75
2023/10/28 14:58:55;;;;;;;;;;;12.80;99.90;;;;;;4950670;29;19957;-76
2023/10/28 15:01:21;;;;;;;;;;;12.60;99.90;;;;;;4950796;29;20400;-78
2023/10/28 15:03:47;;;;;;;;;;;;;;;;;;4948763;28;19924;-76
2023/10/28 15:06:17;;;;;;;;;;;;;;;;;;4952382;28;19973;-75
2023/10/28 15:08:43;;;;;;;;;;;12.60;99.90;;;;;;4954111;29;19910;-76
2023/10/28 15:11:10;;;;;;;;;;;;;;;;;;4933787;28;19973;-77
2023/10/28 15:13:36;;;;;;;;;;;;;;;;;;4951451;28;19957;-77
2023/10/28 15:16:02;;;;;;;;;;;12.40;99.90;;;;;;4954140;28;20316;-77
2023/10/28 15:18:28;;;;;;;;;;;;;;;;;;4953726;28;19921;-77
2023/10/28 15:20:54;;;;;;;;;;;;;;;;;;4953538;29;19943;-77
2023/10/28 15:23:20;;;;;;;;;;;;;;;;;;4956109;29;20568;-76
2023/10/28 15:25:47;;;;;;;;;;;12.60;99.90;;;;;;4954184;28;19929;-77
2023/10/28 15:28:12;;;;;;;;;;;12.80;99.90;;;;;;4951929;28;20005;-77
2023/10/28 15:30:38;;;;;;;;;;;;;;;;;;4949639;29;19945;-78
2023/10/28 15:33:06;;;;;;;;;;;;;;;;;;4953094;29;19915;-80
2023/10/28 15:35:31;;;;;;;;;;;12.40;99.90;;;;;;4952338;28;20361;-77
2023/10/28 15:37:57;;;;;;;;;;;;;;;;;;4949199;28;19985;-76
2023/10/28 15:40:23;;;;;;;;;;;12.30;99.90;;;;;;4953674;29;19918;-76